Terminal Aerodrome Forecast
Issued by NWS Twin Cities, MN

Home | Current Version | Previous Version | Text Only | Print | Product List | Glossary On
Versions: 1 2 3 4 5 6 7 8 9 10 11 12 13 14 15 16 17 18 19 20
265
FTUS43 KMPX 220844 AAA
TAFEAU
TAF AMD
KEAU 220844Z 2209/2306 05003KT 6SM BR BKN250
     FM221700 09006KT P6SM OVC090
     FM222200 10007KT P6SM VCSH OVC040
     FM230100 10008KT 4SM -SN BR OVC030
     FM230200 11008KT 1 1/2SM -SN BR OVC010=

USA.gov is the U.S. government's official web portal to all federal, state and local government web resources and services.